createdAt,value
2019-04-20T00:00:50.945Z,12.52
2019-04-20T00:03:15.922Z,12.63
2019-04-20T00:05:45.508Z,12.40
2019-04-20T00:08:20.075Z,12.54
2019-04-20T00:10:54.328Z,12.79
2019-04-20T00:13:24.496Z,12.91
2019-04-20T00:15:45.092Z,12.80
2019-04-20T00:18:14.864Z,12.79
2019-04-20T00:20:51.427Z,12.69
2019-04-20T00:23:40.455Z,12.65
2019-04-20T00:27:04.435Z,12.59
2019-04-20T00:29:21.638Z,12.36
2019-04-20T00:31:45.461Z,12.25
2019-04-20T00:34:14.084Z,12.23
2019-04-20T00:36:36.964Z,12.17
2019-04-20T00:39:10.877Z,12.10
2019-04-20T00:41:44.159Z,12.05
2019-04-20T00:44:13.381Z,12.02
2019-04-20T00:46:53.443Z,11.86
2019-04-20T00:49:27.727Z,11.81
2019-04-20T00:52:07.612Z,11.88
2019-04-20T00:54:09.521Z,11.67
2019-04-20T00:56:39.185Z,11.54
2019-04-20T00:59:20.740Z,11.62
2019-04-20T01:02:00.839Z,11.51
2019-04-20T01:04:23.897Z,11.33
2019-04-20T01:07:11.342Z,11.20
2019-04-20T01:10:05.121Z,11.40
2019-04-20T01:12:36.598Z,11.44
2019-04-20T01:15:09.913Z,11.36
2019-04-20T01:17:37.768Z,11.21
2019-04-20T01:20:06.806Z,11.04
2019-04-20T01:22:40.297Z,10.95
2019-04-20T01:25:14.175Z,11.05
2019-04-20T01:27:50.118Z,11.30
2019-04-20T01:30:20.057Z,11.19
2019-04-20T01:32:55.372Z,11.14
2019-04-20T01:35:26.056Z,11.16
2019-04-20T01:37:57.508Z,10.94
2019-04-20T01:40:11.317Z,10.96
2019-04-20T01:42:40.381Z,10.96
2019-04-20T01:45:16.798Z,10.82
2019-04-20T01:47:45.809Z,10.86
2019-04-20T01:50:14.212Z,10.70
2019-04-20T01:52:51.754Z,10.62
2019-04-20T01:55:33.316Z,10.63
2019-04-20T01:58:22.519Z,10.58
2019-04-20T02:00:46.937Z,10.57
2019-04-20T02:03:38.374Z,10.29
2019-04-20T02:06:10.539Z,10.09
2019-04-20T02:08:35.732Z,10.35
2019-04-20T02:11:07.350Z,10.30
2019-04-20T02:13:43.667Z,10.25
2019-04-20T02:16:15.831Z,10.22
2019-04-20T02:18:44.228Z,10.18
2019-04-20T02:21:25.869Z,10.26
2019-04-20T02:23:47.416Z,10.25
2019-04-20T02:26:07.031Z,10.00
2019-04-20T02:29:03.300Z,10.00
2019-04-20T02:31:44.513Z,10.03
2019-04-20T02:35:01.595Z,10.12
2019-04-20T02:47:07.921Z,10.38
2019-04-20T02:52:06.140Z,10.32
2019-04-20T02:57:05.535Z,10.37
2019-04-20T02:59:53.340Z,10.29
2019-04-20T03:01:51.775Z,10.29
2019-04-20T03:04:06.556Z,10.34
2019-04-20T03:06:53.322Z,10.33
2019-04-20T03:09:25.630Z,10.39
2019-04-20T03:14:21.846Z,10.32
2019-04-20T03:16:56.836Z,10.28
2019-04-20T03:19:20.729Z,10.25
2019-04-20T03:22:05.041Z,10.20
2019-04-20T03:24:33.927Z,10.12
2019-04-20T03:27:07.477Z,10.20
2019-04-20T03:30:40.649Z,10.17
2019-04-20T03:35:34.276Z,10.07
2019-04-20T03:37:48.529Z,10.01
2019-04-20T03:40:12.770Z,10.02
2019-04-20T03:42:28.862Z,10.03
2019-04-20T03:45:04.144Z,9.95
2019-04-20T03:47:38.382Z,10.06
2019-04-20T03:50:25.050Z,9.85
2019-04-20T03:52:54.279Z,9.53
2019-04-20T03:55:40.926Z,9.56
2019-04-20T03:58:24.146Z,9.60
2019-04-20T04:00:59.824Z,9.40
2019-04-20T04:03:59.237Z,9.44
2019-04-20T04:06:18.399Z,9.38
2019-04-20T04:08:48.606Z,9.29
2019-04-20T04:11:22.713Z,9.27
2019-04-20T04:13:37.781Z,9.13
2019-04-20T04:16:10.201Z,9.05
2019-04-20T04:18:42.026Z,9.12
2019-04-20T04:21:12.650Z,9.27
2019-04-20T04:23:54.294Z,9.23
2019-04-20T04:26:27.441Z,9.29
2019-04-20T04:28:55.974Z,9.26
2019-04-20T04:31:27.562Z,9.47
2019-04-20T04:34:00.829Z,9.45
2019-04-20T04:36:21.226Z,9.41
2019-04-20T04:39:06.397Z,9.31
2019-04-20T04:41:28.222Z,9.19
2019-04-20T04:44:00.632Z,9.38
2019-04-20T04:46:10.217Z,9.45
2019-04-20T04:48:42.718Z,9.42
2019-04-20T04:51:14.875Z,9.56
2019-04-20T04:53:47.798Z,9.50
2019-04-20T04:56:13.180Z,9.42
2019-04-20T04:58:40.393Z,9.43
2019-04-20T05:01:15.898Z,9.45
2019-04-20T05:04:05.260Z,9.53
2019-04-20T05:06:31.818Z,9.57
2019-04-20T05:08:51.449Z,9.63
2019-04-20T05:11:17.202Z,9.58
2019-04-20T05:13:55.689Z,9.62
2019-04-20T05:16:38.443Z,9.66
2019-04-20T05:19:09.411Z,9.79
2019-04-20T05:22:11.106Z,9.88
2019-04-20T05:24:38.954Z,9.86
2019-04-20T05:27:36.432Z,9.96
2019-04-20T05:29:44.719Z,9.99
2019-04-20T05:32:17.588Z,10.07
2019-04-20T05:35:09.591Z,10.26
2019-04-20T05:37:53.661Z,10.38
2019-04-20T05:40:04.691Z,10.55
2019-04-20T05:42:35.876Z,10.94
2019-04-20T05:45:07.306Z,11.19
2019-04-20T05:47:33.431Z,11.63
2019-04-20T05:50:00.999Z,11.70
2019-04-20T05:52:56.160Z,11.94
2019-04-20T05:55:10.201Z,11.90
2019-04-20T05:57:42.591Z,12.43
2019-04-20T06:00:14.255Z,12.57
2019-04-20T06:02:39.146Z,12.82
2019-04-20T06:05:28.984Z,12.82
2019-04-20T06:07:42.398Z,13.26
2019-04-20T06:10:17.958Z,12.98
2019-04-20T06:12:45.704Z,12.93
2019-04-20T06:15:50.659Z,12.78
2019-04-20T06:18:17.718Z,13.26
2019-04-20T06:21:00.490Z,13.50
2019-04-20T06:26:36.981Z,12.89
2019-04-20T06:28:46.690Z,13.49
2019-04-20T06:31:34.085Z,13.35
2019-04-20T06:34:30.285Z,13.81
2019-04-20T06:36:53.513Z,13.68
2019-04-20T06:39:34.781Z,14.23
2019-04-20T06:42:15.398Z,14.02
2019-04-20T06:44:32.036Z,14.09
2019-04-20T06:47:08.671Z,13.99
2019-04-20T06:49:36.759Z,14.33
2019-04-20T06:52:27.606Z,13.92
2019-04-20T06:55:20.032Z,14.27
2019-04-20T06:57:40.671Z,14.25
2019-04-20T07:02:44.223Z,14.89
2019-04-20T07:05:13.038Z,14.71
2019-04-20T07:07:43.182Z,14.66
2019-04-20T07:12:36.883Z,14.98
2019-04-20T07:15:08.526Z,15.49
2019-04-20T07:17:55.142Z,15.48
2019-04-20T07:20:19.454Z,15.23
2019-04-20T07:23:05.009Z,15.43
2019-04-20T07:25:33.212Z,15.71
2019-04-20T07:28:02.969Z,16.19
2019-04-20T07:30:30.326Z,16.57
2019-04-20T07:33:04.374Z,16.07
2019-04-20T07:35:30.769Z,17.15
2019-04-20T07:38:18.208Z,16.45
2019-04-20T07:42:58.737Z,17.35
2019-04-20T07:45:32.080Z,17.17
2019-04-20T07:48:07.785Z,17.54
2019-04-20T07:50:25.086Z,17.33
2019-04-20T07:52:51.421Z,17.55
2019-04-20T07:55:42.224Z,17.67
2019-04-20T07:57:55.162Z,17.78
2019-04-20T08:00:41.967Z,17.98
2019-04-20T08:03:33.366Z,18.15
2019-04-20T08:06:11.540Z,17.99
2019-04-20T08:08:51.639Z,17.43
2019-04-20T08:11:24.437Z,17.81
2019-04-20T08:13:57.950Z,18.18
2019-04-20T08:16:35.671Z,18.30
2019-04-20T08:18:55.438Z,18.33
2019-04-20T08:21:32.732Z,18.42
2019-04-20T08:23:55.513Z,18.50
2019-04-20T08:26:15.555Z,19.06
2019-04-20T08:28:51.945Z,19.22
2019-04-20T08:31:50.338Z,19.29
2019-04-20T08:34:31.193Z,19.61
2019-04-20T08:36:56.686Z,19.10
2019-04-20T08:39:42.984Z,18.70
2019-04-20T08:42:00.499Z,19.23
2019-04-20T08:47:15.866Z,19.11
2019-04-20T08:49:37.828Z,19.79
2019-04-20T08:54:26.419Z,20.24
2019-04-20T08:56:47.995Z,19.75
2019-04-20T08:59:09.593Z,19.99
2019-04-20T09:01:39.420Z,20.13
2019-04-20T09:04:15.363Z,20.09
2019-04-20T09:06:53.372Z,19.72
2019-04-20T09:09:42.498Z,20.05
2019-04-20T09:12:00.837Z,19.93
2019-04-20T09:14:18.515Z,20.31
2019-04-20T09:16:57.030Z,20.12
2019-04-20T09:19:30.844Z,20.22
2019-04-20T09:22:13.408Z,20.41
2019-04-20T09:24:52.883Z,19.90
2019-04-20T09:27:14.303Z,19.81
2019-04-20T09:29:40.701Z,20.17
2019-04-20T09:32:24.730Z,19.99
2019-04-20T09:34:59.998Z,19.96
2019-04-20T09:37:40.025Z,19.82
2019-04-20T09:40:29.302Z,19.89
2019-04-20T09:42:39.770Z,19.80
2019-04-20T09:45:20.253Z,20.17
2019-04-20T09:47:44.996Z,20.19
2019-04-20T09:50:27.888Z,19.69
2019-04-20T09:52:59.135Z,19.95
2019-04-20T09:55:24.673Z,19.98
2019-04-20T09:57:57.653Z,20.02
2019-04-20T10:00:28.883Z,19.78
2019-04-20T10:02:44.667Z,19.94
2019-04-20T10:05:13.580Z,19.91
2019-04-20T10:07:43.493Z,19.92
2019-04-20T10:10:21.458Z,19.91
2019-04-20T10:12:43.954Z,20.01
2019-04-20T10:15:19.102Z,20.34
2019-04-20T10:17:43.662Z,20.37
2019-04-20T10:20:20.822Z,20.49
2019-04-20T10:22:42.565Z,20.24
2019-04-20T10:25:10.936Z,20.35
2019-04-20T10:27:41.871Z,20.19
2019-04-20T10:30:10.407Z,20.25
2019-04-20T10:32:43.015Z,20.39
2019-04-20T10:35:12.210Z,20.44
2019-04-20T10:37:43.669Z,20.48
2019-04-20T10:40:13.443Z,20.71
2019-04-20T10:42:41.909Z,20.71
2019-04-20T10:45:13.352Z,20.84
2019-04-20T10:47:43.056Z,20.72
2019-04-20T10:50:11.704Z,20.88
2019-04-20T10:52:39.904Z,20.74
2019-04-20T10:55:08.420Z,20.71
2019-04-20T10:57:37.594Z,20.81
2019-04-20T11:00:07.949Z,20.94
2019-04-20T11:02:37.383Z,21.07
2019-04-20T11:05:06.585Z,20.76
2019-04-20T11:07:34.837Z,20.61
2019-04-20T11:10:13.371Z,20.91
2019-04-20T11:12:34.576Z,20.53
2019-04-20T11:15:03.180Z,20.70
2019-04-20T11:17:31.785Z,20.67
2019-04-20T11:20:01.347Z,20.90
2019-04-20T11:22:30.555Z,21.16
2019-04-20T11:24:58.928Z,20.72
2019-04-20T11:27:28.032Z,20.62
2019-04-20T11:29:56.322Z,21.02
2019-04-20T11:32:24.506Z,21.02
2019-04-20T11:34:53.317Z,21.12
2019-04-20T11:37:22.013Z,21.15
2019-04-20T11:39:50.786Z,21.16
2019-04-20T11:42:19.526Z,21.40
2019-04-20T11:44:48.825Z,21.33
2019-04-20T11:47:17.181Z,21.58
2019-04-20T11:49:45.865Z,21.25
2019-04-20T11:52:16.859Z,21.36
2019-04-20T11:54:44.436Z,21.30
2019-04-20T11:57:13.290Z,21.68
2019-04-20T11:59:41.625Z,21.40
2019-04-20T12:02:40.439Z,21.39
2019-04-20T12:05:21.085Z,21.62
2019-04-20T12:07:53.484Z,21.48
2019-04-20T12:10:23.991Z,21.62
2019-04-20T12:12:55.404Z,21.44
2019-04-20T12:15:22.511Z,21.10
2019-04-20T12:17:51.515Z,21.61
2019-04-20T12:20:20.879Z,21.13
2019-04-20T12:22:50.455Z,21.61
2019-04-20T12:25:18.846Z,21.49
2019-04-20T12:27:51.138Z,21.45
2019-04-20T12:30:17.813Z,21.44
2019-04-20T12:32:51.926Z,21.40
2019-04-20T12:35:16.497Z,21.58
2019-04-20T12:37:45.099Z,21.81
2019-04-20T12:40:16.318Z,21.65
2019-04-20T12:42:46.647Z,21.48
2019-04-20T12:45:17.860Z,21.52
2019-04-20T12:47:47.937Z,21.65
2019-04-20T12:50:17.357Z,21.31
2019-04-20T12:52:46.219Z,21.62
2019-04-20T12:55:16.583Z,21.80
2019-04-20T12:57:45.260Z,21.67
2019-04-20T13:00:17.395Z,21.27
2019-04-20T13:02:45.656Z,21.56
2019-04-20T13:05:15.403Z,21.52
2019-04-20T13:07:49.726Z,21.55
2019-04-20T13:10:16.041Z,21.35
2019-04-20T13:13:04.651Z,21.59
2019-04-20T13:15:56.307Z,21.43
2019-04-20T13:18:36.971Z,21.40
2019-04-20T13:21:05.319Z,21.24
2019-04-20T13:23:35.092Z,21.55
2019-04-20T13:26:05.853Z,21.85
2019-04-20T13:28:34.716Z,21.83
2019-04-20T13:31:03.962Z,21.63
2019-04-20T13:33:33.586Z,21.48
2019-04-20T13:36:02.131Z,21.46
2019-04-20T13:38:30.447Z,21.57
2019-04-20T13:40:59.856Z,21.67
2019-04-20T13:43:28.157Z,22.01
2019-04-20T13:45:57.213Z,21.34
2019-04-20T13:48:26.724Z,21.31
2019-04-20T13:50:56.071Z,21.62
2019-04-20T13:53:25.338Z,21.57
2019-04-20T13:55:54.351Z,21.57
2019-04-20T13:58:40.967Z,21.66
2019-04-20T14:01:32.690Z,21.61
2019-04-20T14:04:08.633Z,21.61
2019-04-20T14:06:37.340Z,21.55
2019-04-20T14:09:07.612Z,21.76
2019-04-20T14:11:36.111Z,21.61
2019-04-20T14:14:06.464Z,21.78
2019-04-20T14:16:34.834Z,21.95
2019-04-20T14:19:03.240Z,22.06
2019-04-20T14:21:32.188Z,21.81
2019-04-20T14:24:01.309Z,22.20
2019-04-20T14:26:30.669Z,22.00
2019-04-20T14:28:59.001Z,21.66
2019-04-20T14:31:28.005Z,21.77
2019-04-20T14:33:57.199Z,21.81
2019-04-20T14:36:26.545Z,21.54
2019-04-20T14:38:56.084Z,21.60
2019-04-20T14:41:24.414Z,21.85
2019-04-20T14:43:55.139Z,21.64
2019-04-20T14:46:26.291Z,21.76
2019-04-20T14:48:54.789Z,21.57
2019-04-20T14:51:23.744Z,21.62
2019-04-20T14:53:53.784Z,21.58
2019-04-20T14:56:23.406Z,21.39
2019-04-20T14:59:05.241Z,21.41
2019-04-20T15:01:48.175Z,21.44
2019-04-20T15:04:19.597Z,21.32
2019-04-20T15:06:46.688Z,21.40
2019-04-20T15:09:14.932Z,21.08
2019-04-20T15:11:45.209Z,21.03
2019-04-20T15:14:14.430Z,21.22
2019-04-20T15:16:42.867Z,21.12
2019-04-20T15:19:43.360Z,21.31
2019-04-20T15:22:31.551Z,21.43
2019-04-20T15:25:00.065Z,21.38
2019-04-20T15:27:28.588Z,21.21
2019-04-20T15:29:57.924Z,21.11
2019-04-20T15:32:27.100Z,21.36
2019-04-20T15:34:55.400Z,21.07
2019-04-20T15:37:23.609Z,21.21
2019-04-20T15:39:52.821Z,21.18
2019-04-20T15:42:21.300Z,21.32
2019-04-20T15:44:49.739Z,21.35
2019-04-20T15:47:17.979Z,21.11
2019-04-20T15:49:46.313Z,21.18
2019-04-20T15:52:22.097Z,21.21
2019-04-20T15:54:45.526Z,21.10
2019-04-20T15:57:18.392Z,21.02
2019-04-20T15:59:44.494Z,21.03
2019-04-20T16:02:29.353Z,20.81
2019-04-20T16:05:04.042Z,20.70
2019-04-20T16:07:39.097Z,20.92
2019-04-20T16:10:03.312Z,21.07
2019-04-20T16:12:33.009Z,20.79
2019-04-20T16:15:02.057Z,20.59
2019-04-20T16:17:36.855Z,20.76
2019-04-20T16:20:07.952Z,20.70
2019-04-20T16:22:31.048Z,20.83
2019-04-20T16:25:05.515Z,20.66
2019-04-20T16:27:36.023Z,20.40
2019-04-20T16:30:07.543Z,20.44
2019-04-20T16:32:36.612Z,20.43
2019-04-20T16:35:08.586Z,20.31
2019-04-20T16:37:38.259Z,20.30
2019-04-20T16:40:07.968Z,20.33
2019-04-20T16:42:39.272Z,20.36
2019-04-20T16:45:07.403Z,20.20
2019-04-20T16:47:36.561Z,20.21
2019-04-20T16:50:06.795Z,19.95
2019-04-20T16:52:36.760Z,20.05
2019-04-20T16:55:06.446Z,19.96
2019-04-20T16:57:35.054Z,19.80
2019-04-20T17:00:05.350Z,19.78
2019-04-20T17:02:34.059Z,19.55
2019-04-20T17:05:03.108Z,19.71
2019-04-20T17:07:37.363Z,19.51
2019-04-20T17:10:07.506Z,19.31
2019-04-20T17:12:37.518Z,19.22
2019-04-20T17:15:11.651Z,19.37
2019-04-20T17:17:40.061Z,19.39
2019-04-20T17:20:11.438Z,19.21
2019-04-20T17:22:40.254Z,19.08
2019-04-20T17:25:10.112Z,19.04
2019-04-20T17:28:04.699Z,19.01
2019-04-20T17:30:59.176Z,18.98
2019-04-20T17:33:36.274Z,18.83
2019-04-20T17:36:11.004Z,18.73
2019-04-20T17:38:37.514Z,18.77
2019-04-20T17:41:16.695Z,18.61
2019-04-20T17:43:50.710Z,18.55
2019-04-20T17:46:11.930Z,18.55
2019-04-20T17:48:45.077Z,18.38
2019-04-20T17:51:23.497Z,18.38
2019-04-20T17:54:06.836Z,18.33
2019-04-20T17:56:36.289Z,18.33
2019-04-20T17:59:06.058Z,18.20
2019-04-20T18:02:25.542Z,18.10
2019-04-20T18:05:26.881Z,18.06
2019-04-20T18:07:52.468Z,17.80
2019-04-20T18:10:26.250Z,17.77
2019-04-20T18:12:44.016Z,17.64
2019-04-20T18:15:29.374Z,17.60
2019-04-20T18:18:18.749Z,17.45
2019-04-20T18:21:01.122Z,17.37
2019-04-20T18:23:36.358Z,17.28
2019-04-20T18:26:22.744Z,17.14
2019-04-20T18:28:51.650Z,17.05
2019-04-20T18:31:19.601Z,17.01
2019-04-20T18:33:50.564Z,16.95
2019-04-20T18:36:27.286Z,16.78
2019-04-20T18:38:57.497Z,16.71
2019-04-20T18:41:30.922Z,16.58
2019-04-20T18:43:54.035Z,16.55
2019-04-20T18:46:44.034Z,16.48
2019-04-20T18:49:10.226Z,16.39
2019-04-20T18:51:21.762Z,16.32
2019-04-20T18:53:53.539Z,16.29
2019-04-20T18:56:27.927Z,16.09
2019-04-20T18:58:53.420Z,16.07
2019-04-20T19:01:29.414Z,16.04
2019-04-20T19:03:52.352Z,15.84
2019-04-20T19:06:21.257Z,15.70
2019-04-20T19:08:51.873Z,15.58
2019-04-20T19:11:21.722Z,15.60
2019-04-20T19:14:16.404Z,15.51
2019-04-20T19:16:52.430Z,15.39
2019-04-20T19:19:24.540Z,15.33
2019-04-20T19:21:46.181Z,15.20
2019-04-20T19:24:16.887Z,15.14
2019-04-20T19:26:50.846Z,15.11
2019-04-20T19:29:24.307Z,15.02
2019-04-20T19:32:07.336Z,15.00
2019-04-20T19:34:35.406Z,14.94
2019-04-20T19:36:59.117Z,14.81
2019-04-20T19:39:29.962Z,14.77
2019-04-20T19:41:54.027Z,14.66
2019-04-20T19:44:28.870Z,14.70
2019-04-20T19:47:05.236Z,14.67
2019-04-20T19:49:25.376Z,14.61
2019-04-20T19:52:18.983Z,14.66
2019-04-20T19:54:43.000Z,14.50
2019-04-20T19:57:01.286Z,14.54
2019-04-20T19:59:26.104Z,14.40
2019-04-20T20:01:47.725Z,14.37
2019-04-20T20:04:17.463Z,14.30
2019-04-20T20:06:51.806Z,14.27
2019-04-20T20:09:17.798Z,14.23
2019-04-20T20:11:46.737Z,14.14
2019-04-20T20:14:18.031Z,14.09
2019-04-20T20:17:02.674Z,14.06
2019-04-20T20:19:32.825Z,13.95
2019-04-20T20:21:59.066Z,13.88
2019-04-20T20:24:18.043Z,13.86
2019-04-20T20:26:55.756Z,13.74
2019-04-20T20:29:27.473Z,13.69
2019-04-20T20:32:03.643Z,13.60
2019-04-20T20:34:28.017Z,13.56
2019-04-20T20:36:54.928Z,13.53
2019-04-20T20:39:24.242Z,13.49
2019-04-20T20:42:04.958Z,13.50
2019-04-20T20:44:33.117Z,13.33
2019-04-20T20:46:59.231Z,13.31
2019-04-20T20:49:40.267Z,13.21
2019-04-20T20:52:13.329Z,13.19
2019-04-20T20:54:33.678Z,13.24
2019-04-20T20:57:01.461Z,13.13
2019-04-20T20:59:34.751Z,13.07
2019-04-20T21:02:04.801Z,13.00
2019-04-20T21:04:23.867Z,12.93
2019-04-20T21:06:52.806Z,12.87
2019-04-20T21:09:24.148Z,12.79
2019-04-20T21:12:02.377Z,12.75
2019-04-20T21:14:27.164Z,12.75
2019-04-20T21:17:02.992Z,12.69
2019-04-20T21:19:43.066Z,12.64
2019-04-20T21:21:59.855Z,12.58
2019-04-20T21:24:30.432Z,12.54
2019-04-20T21:27:00.681Z,12.43
2019-04-20T21:29:35.897Z,12.37
2019-04-20T21:32:05.082Z,12.44
2019-04-20T21:34:29.446Z,12.29
2019-04-20T21:37:03.502Z,12.33
2019-04-20T21:39:38.946Z,12.15
2019-04-20T21:42:05.442Z,12.13
2019-04-20T21:44:35.102Z,12.15
2019-04-20T21:47:01.374Z,12.06
2019-04-20T21:49:42.245Z,11.84
2019-04-20T21:52:03.671Z,11.80
2019-04-20T21:54:29.842Z,11.88
2019-04-20T21:57:03.134Z,11.84
2019-04-20T21:59:37.194Z,11.73
2019-04-20T22:02:06.518Z,11.66
2019-04-20T22:04:29.728Z,11.60
2019-04-20T22:06:58.299Z,11.65
2019-04-20T22:09:36.684Z,11.62
2019-04-20T22:11:58.112Z,11.62
2019-04-20T22:14:28.450Z,11.56
2019-04-20T22:17:00.057Z,11.53
2019-04-20T22:19:38.756Z,11.32
2019-04-20T22:22:05.562Z,11.40
2019-04-20T22:24:42.464Z,11.49
2019-04-20T22:27:06.480Z,11.33
2019-04-20T22:29:30.105Z,11.15
2019-04-20T22:32:03.948Z,11.19
2019-04-20T22:34:30.178Z,11.16
2019-04-20T22:36:59.918Z,10.96
2019-04-20T22:39:39.864Z,11.09
2019-04-20T22:42:07.341Z,10.90
2019-04-20T22:44:34.820Z,10.90
2019-04-20T22:47:05.364Z,10.91
2019-04-20T22:49:48.177Z,10.93
2019-04-20T22:52:18.563Z,10.76
2019-04-20T22:54:48.949Z,10.39
2019-04-20T22:57:19.333Z,10.54
2019-04-20T22:59:44.677Z,10.15
2019-04-20T23:02:07.609Z,10.21
2019-04-20T23:04:35.215Z,10.08
2019-04-20T23:07:05.052Z,9.39
2019-04-20T23:09:39.471Z,9.74
2019-04-20T23:12:09.641Z,9.70
2019-04-20T23:14:34.301Z,9.70
2019-04-20T23:17:04.114Z,9.71
2019-04-20T23:19:41.581Z,9.56
2019-04-20T23:22:05.364Z,9.81
2019-04-20T23:24:33.297Z,9.79
2019-04-20T23:27:04.467Z,9.60
2019-04-20T23:29:38.026Z,9.23
2019-04-20T23:32:07.703Z,9.20
2019-04-20T23:34:34.582Z,9.24
2019-04-20T23:37:08.760Z,9.11
2019-04-20T23:39:37.336Z,9.15
2019-04-20T23:42:08.942Z,9.05
2019-04-20T23:44:52.107Z,9.19
2019-04-20T23:47:45.466Z,9.42
2019-04-20T23:50:30.545Z,9.23
2019-04-20T23:53:01.381Z,9.22
2019-04-20T23:55:13.431Z,9.24
2019-04-20T23:57:41.941Z,9.06
